sensor_id;sensor_type;location;lat;lon;timestamp;P1;durP1;ratioP1;P2;durP2;ratioP2
80647;SDS011;70012;0.000;0.000;2023-05-07T15:46:47;11.40;;;4.28;;
80647;SDS011;70012;0.000;0.000;2023-05-07T15:52:25;15.52;;;4.25;;
80647;SDS011;70012;0.000;0.000;2023-05-07T15:54:50;10.33;;;4.27;;
80647;SDS011;70012;0.000;0.000;2023-05-07T15:57:15;18.83;;;5.30;;
80647;SDS011;70012;0.000;0.000;2023-05-07T15:59:40;21.10;;;5.13;;
80647;SDS011;70012;0.000;0.000;2023-05-07T16:02:06;21.20;;;5.53;;
80647;SDS011;70012;0.000;0.000;2023-05-07T16:04:32;19.45;;;5.88;;
80647;SDS011;70012;0.000;0.000;2023-05-07T16:06:57;16.25;;;5.18;;
80647;SDS011;70012;0.000;0.000;2023-05-07T16:09:23;23.73;;;5.87;;
80647;SDS011;70012;0.000;0.000;2023-05-07T16:11:50;12.60;;;5.15;;
80647;SDS011;70012;0.000;0.000;2023-05-07T16:16:40;20.53;;;5.23;;
80647;SDS011;70012;0.000;0.000;2023-05-07T16:21:31;13.17;;;4.83;;
80647;SDS011;70012;0.000;0.000;2023-05-07T16:23:57;26.90;;;5.10;;
80647;SDS011;70012;0.000;0.000;2023-05-07T16:26:22;21.60;;;5.90;;
80647;SDS011;70012;0.000;0.000;2023-05-07T16:28:49;14.20;;;4.72;;
80647;SDS011;70012;0.000;0.000;2023-05-07T16:31:15;17.45;;;5.65;;
80647;SDS011;70012;0.000;0.000;2023-05-07T16:36:06;9.17;;;5.27;;
80647;SDS011;70012;0.000;0.000;2023-05-07T16:40:59;12.25;;;4.70;;
80647;SDS011;70012;0.000;0.000;2023-05-07T16:43:26;14.50;;;5.03;;
80647;SDS011;70012;0.000;0.000;2023-05-07T16:45:52;14.20;;;4.75;;
80647;SDS011;70012;0.000;0.000;2023-05-07T16:50:42;13.47;;;5.13;;
80647;SDS011;70012;0.000;0.000;2023-05-07T16:53:08;13.75;;;4.95;;
80647;SDS011;70012;0.000;0.000;2023-05-07T16:55:39;21.45;;;5.60;;
80647;SDS011;70012;0.000;0.000;2023-05-07T16:58:05;13.63;;;5.70;;
80647;SDS011;70012;0.000;0.000;2023-05-07T17:00:31;16.77;;;5.07;;
80647;SDS011;70012;0.000;0.000;2023-05-07T17:05:22;13.83;;;4.27;;
80647;SDS011;70012;0.000;0.000;2023-05-07T17:07:47;9.47;;;4.00;;
80647;SDS011;70012;0.000;0.000;2023-05-07T17:10:13;6.82;;;2.90;;
80647;SDS011;70012;0.000;0.000;2023-05-07T17:15:03;4.20;;;3.37;;
80647;SDS011;70012;0.000;0.000;2023-05-07T17:17:30;4.88;;;2.50;;
80647;SDS011;70012;0.000;0.000;2023-05-07T17:22:22;4.95;;;2.40;;
80647;SDS011;70012;0.000;0.000;2023-05-07T17:24:49;5.97;;;2.50;;
80647;SDS011;70012;0.000;0.000;2023-05-07T17:27:14;3.45;;;2.40;;
80647;SDS011;70012;0.000;0.000;2023-05-07T17:29:40;3.30;;;2.47;;
80647;SDS011;70012;0.000;0.000;2023-05-07T17:32:05;3.57;;;2.43;;
80647;SDS011;70012;0.000;0.000;2023-05-07T17:34:30;3.87;;;2.57;;
80647;SDS011;70012;0.000;0.000;2023-05-07T17:36:56;3.30;;;2.38;;
80647;SDS011;70012;0.000;0.000;2023-05-07T17:39:22;5.22;;;2.70;;
80647;SDS011;70012;0.000;0.000;2023-05-07T17:41:48;4.55;;;2.50;;
80647;SDS011;70012;0.000;0.000;2023-05-07T17:44:13;3.87;;;2.80;;
80647;SDS011;70012;0.000;0.000;2023-05-07T17:46:38;3.53;;;2.60;;
80647;SDS011;70012;0.000;0.000;2023-05-07T17:49:04;5.40;;;2.90;;
80647;SDS011;70012;0.000;0.000;2023-05-07T17:51:32;4.07;;;2.17;;
80647;SDS011;70012;0.000;0.000;2023-05-07T17:53:58;8.10;;;2.67;;
80647;SDS011;70012;0.000;0.000;2023-05-07T17:56:23;4.33;;;2.60;;
80647;SDS011;70012;0.000;0.000;2023-05-07T17:58:48;3.90;;;2.00;;
80647;SDS011;70012;0.000;0.000;2023-05-07T18:01:15;5.07;;;2.22;;
80647;SDS011;70012;0.000;0.000;2023-05-07T18:03:40;4.37;;;2.23;;
80647;SDS011;70012;0.000;0.000;2023-05-07T18:06:05;2.97;;;2.60;;
80647;SDS011;70012;0.000;0.000;2023-05-07T18:08:31;3.83;;;2.40;;
80647;SDS011;70012;0.000;0.000;2023-05-07T18:10:57;6.10;;;3.50;;
80647;SDS011;70012;0.000;0.000;2023-05-07T18:13:22;5.95;;;2.90;;
80647;SDS011;70012;0.000;0.000;2023-05-07T18:18:14;4.87;;;2.40;;
80647;SDS011;70012;0.000;0.000;2023-05-07T18:20:39;5.43;;;2.40;;
80647;SDS011;70012;0.000;0.000;2023-05-07T18:25:30;9.70;;;2.60;;
80647;SDS011;70012;0.000;0.000;2023-05-07T18:27:56;2.88;;;2.20;;
80647;SDS011;70012;0.000;0.000;2023-05-07T18:32:47;4.93;;;2.47;;
80647;SDS011;70012;0.000;0.000;2023-05-07T18:35:13;8.20;;;3.08;;
80647;SDS011;70012;0.000;0.000;2023-05-07T18:37:38;5.00;;;2.38;;
80647;SDS011;70012;0.000;0.000;2023-05-07T18:40:04;5.80;;;2.70;;
80647;SDS011;70012;0.000;0.000;2023-05-07T18:42:30;4.68;;;2.33;;
80647;SDS011;70012;0.000;0.000;2023-05-07T18:52:14;6.32;;;2.90;;
80647;SDS011;70012;0.000;0.000;2023-05-07T18:54:45;7.35;;;2.70;;
80647;SDS011;70012;0.000;0.000;2023-05-07T18:59:42;6.25;;;2.75;;
80647;SDS011;70012;0.000;0.000;2023-05-07T19:02:09;4.47;;;2.20;;
80647;SDS011;70012;0.000;0.000;2023-05-07T19:04:37;7.07;;;2.80;;
80647;SDS011;70012;0.000;0.000;2023-05-07T19:07:04;6.03;;;2.92;;
80647;SDS011;70012;0.000;0.000;2023-05-07T19:09:30;6.97;;;3.08;;
80647;SDS011;70012;0.000;0.000;2023-05-07T19:11:57;5.65;;;2.90;;
80647;SDS011;70012;0.000;0.000;2023-05-07T19:14:22;5.47;;;2.70;;
80647;SDS011;70012;0.000;0.000;2023-05-07T19:19:13;5.97;;;2.80;;
80647;SDS011;70012;0.000;0.000;2023-05-07T19:24:04;10.97;;;3.60;;
80647;SDS011;70012;0.000;0.000;2023-05-07T19:26:29;6.95;;;2.90;;
80647;SDS011;70012;0.000;0.000;2023-05-07T19:31:21;7.18;;;2.78;;
80647;SDS011;70012;0.000;0.000;2023-05-07T19:33:47;8.48;;;2.97;;
80647;SDS011;70012;0.000;0.000;2023-05-07T19:36:13;12.93;;;3.20;;
80647;SDS011;70012;0.000;0.000;2023-05-07T19:38:40;8.35;;;3.10;;
80647;SDS011;70012;0.000;0.000;2023-05-07T19:43:32;10.98;;;3.78;;
80647;SDS011;70012;0.000;0.000;2023-05-07T19:46:02;8.88;;;3.15;;
80647;SDS011;70012;0.000;0.000;2023-05-07T19:48:28;7.75;;;3.13;;
80647;SDS011;70012;0.000;0.000;2023-05-07T19:53:19;8.27;;;2.90;;
80647;SDS011;70012;0.000;0.000;2023-05-07T19:55:46;9.67;;;3.97;;
80647;SDS011;70012;0.000;0.000;2023-05-07T19:58:11;8.65;;;3.33;;
80647;SDS011;70012;0.000;0.000;2023-05-07T20:03:02;11.70;;;3.60;;
80647;SDS011;70012;0.000;0.000;2023-05-07T20:07:53;8.80;;;3.37;;
80647;SDS011;70012;0.000;0.000;2023-05-07T20:10:19;10.25;;;3.53;;
80647;SDS011;70012;0.000;0.000;2023-05-07T20:15:10;10.27;;;3.57;;
80647;SDS011;70012;0.000;0.000;2023-05-07T20:17:35;9.15;;;3.40;;
80647;SDS011;70012;0.000;0.000;2023-05-07T20:20:01;8.67;;;3.67;;
80647;SDS011;70012;0.000;0.000;2023-05-07T20:22:32;6.60;;;3.10;;
80647;SDS011;70012;0.000;0.000;2023-05-07T20:24:57;7.95;;;3.38;;
80647;SDS011;70012;0.000;0.000;2023-05-07T20:29:49;7.40;;;3.35;;
80647;SDS011;70012;0.000;0.000;2023-05-07T20:32:15;8.60;;;3.42;;
80647;SDS011;70012;0.000;0.000;2023-05-07T20:34:41;8.98;;;3.67;;
80647;SDS011;70012;0.000;0.000;2023-05-07T20:37:11;6.57;;;3.40;;
80647;SDS011;70012;0.000;0.000;2023-05-07T20:39:39;7.72;;;3.38;;
80647;SDS011;70012;0.000;0.000;2023-05-07T20:44:31;10.98;;;3.42;;
80647;SDS011;70012;0.000;0.000;2023-05-07T20:46:57;5.97;;;3.17;;
80647;SDS011;70012;0.000;0.000;2023-05-07T20:51:48;5.80;;;3.30;;
80647;SDS011;70012;0.000;0.000;2023-05-07T20:54:14;7.30;;;2.97;;
80647;SDS011;70012;0.000;0.000;2023-05-07T20:56:39;8.63;;;3.63;;
80647;SDS011;70012;0.000;0.000;2023-05-07T20:59:04;5.40;;;2.90;;
80647;SDS011;70012;0.000;0.000;2023-05-07T21:03:56;4.72;;;3.20;;
80647;SDS011;70012;0.000;0.000;2023-05-07T21:08:47;5.43;;;3.03;;
80647;SDS011;70012;0.000;0.000;2023-05-07T21:11:12;7.40;;;2.97;;
80647;SDS011;70012;0.000;0.000;2023-05-07T21:13:37;8.20;;;3.43;;
80647;SDS011;70012;0.000;0.000;2023-05-07T21:16:02;8.13;;;3.60;;
80647;SDS011;70012;0.000;0.000;2023-05-07T21:22:23;7.63;;;3.47;;
80647;SDS011;70012;0.000;0.000;2023-05-07T21:27:16;7.35;;;3.33;;
80647;SDS011;70012;0.000;0.000;2023-05-07T21:32:06;9.83;;;3.30;;
80647;SDS011;70012;0.000;0.000;2023-05-07T21:34:32;6.43;;;3.10;;
80647;SDS011;70012;0.000;0.000;2023-05-07T21:36:57;5.43;;;3.27;;
80647;SDS011;70012;0.000;0.000;2023-05-07T21:41:48;7.50;;;3.40;;
80647;SDS011;70012;0.000;0.000;2023-05-07T21:44:13;6.63;;;3.07;;
